Thunder radar more information blitzortung!


Radar de pluja more information rain snow radar


Visita la nostra xarxa de llocs de meteo:

Template documentation
and downloads

And another site



Extreme low temperature From: 13-12-2017 09:00 Until: 09:59 warning for: Extreme low temperature Level: Yellow info button

Pagina Historial Weather Underground text

Diari Resum Setembre 27, 2017 Unitats:  Imperial    Mètric   Tant
« Previous Dia
SegĂźent Dia »
Diari Setmana Mensual Anual Personalitzada
  Maxima: Minima: Media:
Temperatura: 79.2 °F 59 °F 70 °F
Punt de rosada: 61 °F 53.4 °F 56.8 °F
Humitat: 84 % 50 % 64 %
Wind Speed: 12.7 mph 0 mph 3.6 mph
RĂ fegues de vent: 12.7 mph - -
Vent:- - SSW
Pression baro: 30.2 in 30.1 in -
Precipitacions: 0 in    
Historical Graphs
 
 
Dades de taula per Setembre 27, 2017
Temps Temperatura Punt de rosada Pression baro Vent Wind Speed RĂ fegues de vent Humitat Rainfall Rate (Hourly)
00:02 66.6 °F 56.5 °F 30.2 in WSW 2.3 mph 2.3 mph 70 % 0 in
00:05 61.3 °F 54.3 °F 30.2 in Calm   2 mph 78 % 0 in
00:07 66.6 °F 56.5 °F 30.2 in WSW 1.2 mph   70 % 0 in
00:12 66.6 °F 56.5 °F 30.2 in SW 1.4 mph 1.4 mph 70 % 0 in
00:15 61.2 °F 54.7 °F 30.2 in Calm     79 % 0 in
00:25 61 °F 54.3 °F 30.2 in Calm     79 % 0 in
00:35 60.6 °F 54.1 °F 30.2 in South 1 mph 2 mph 79 % 0 in
00:45 60.3 °F 53.8 °F 30.2 in SW 2 mph 2 mph 79 % 0 in
00:55 60.1 °F 54 °F 30.2 in Calm     80 % 0 in
01:05 59.9 °F 54.1 °F 30.2 in Calm     81 % 0 in
01:15 59.7 °F 54 °F 30.2 in Calm   1 mph 81 % 0 in
01:25 59.7 °F 54.1 °F 30.2 in Calm     82 % 0 in
01:35 59.5 °F 54 °F 30.2 in Calm     82 % 0 in
01:45 59.4 °F 54 °F 30.2 in WSW 1 mph 2 mph 82 % 0 in
01:55 59 °F 53.4 °F 30.2 in Calm   1 mph 82 % 0 in
02:05 59 °F 53.8 °F 30.2 in SW 1 mph 2 mph 83 % 0 in
02:15 59.2 °F 54 °F 30.2 in Calm     83 % 0 in
02:25 59 °F 53.8 °F 30.2 in Calm     83 % 0 in
02:35 59 °F 53.8 °F 30.2 in Calm     83 % 0 in
02:45 59 °F 53.8 °F 30.2 in Calm     83 % 0 in
02:55 59 °F 54.1 °F 30.2 in Calm   1 mph 84 % 0 in
03:05 59 °F 54.1 °F 30.2 in Calm     84 % 0 in
03:15 59.2 °F 54.3 °F 30.2 in NE 1 mph 1 mph 84 % 0 in
03:25 59.7 °F 54.9 °F 30.2 in Calm     84 % 0 in
03:35 59.9 °F 55 °F 30.2 in NE 1 mph 2 mph 84 % 0 in
03:45 60.1 °F 55.2 °F 30.2 in Calm   1 mph 84 % 0 in
03:55 59.9 °F 54.7 °F 30.2 in Calm     83 % 0 in
04:05 59.5 °F 54.3 °F 30.2 in NE 1 mph 2 mph 83 % 0 in
04:15 59.5 °F 54.3 °F 30.2 in Calm   1 mph 83 % 0 in
04:25 59.7 °F 54.5 °F 30.2 in WSW 1 mph 2 mph 83 % 0 in
04:35 60.4 °F 55.6 °F 30.2 in Calm   1 mph 84 % 0 in
04:45 60.8 °F 55.6 °F 30.2 in ENE 2 mph 3 mph 83 % 0 in
04:55 63 °F 57.4 °F 30.2 in ENE 2 mph 2 mph 82 % 0 in
05:05 64.4 °F 58.1 °F 30.2 in Calm   2 mph 80 % 0 in
05:15 64.9 °F 57.9 °F 30.2 in ENE 1 mph 2 mph 78 % 0 in
05:25 66.6 °F 59.2 °F 30.2 in Calm   2 mph 77 % 0 in
05:35 67.3 °F 59.5 °F 30.2 in South 1 mph 2 mph 76 % 0 in
05:45 68.5 °F 59.5 °F 30.2 in SSW 1 mph 2 mph 73 % 0 in
05:55 69.4 °F 60.1 °F 30.2 in South 1 mph 3 mph 72 % 0 in
06:05 70.5 °F 60.6 °F 30.2 in SSW 2 mph 3 mph 71 % 0 in
06:15 70.9 °F 60.6 °F 30.2 in SW 2 mph 4 mph 70 % 0 in
11:15 71.2 °F 60.4 °F 30.2 in West 3.6 mph 3.6 mph 69 % 0 in
11:20 71.4 °F 60.6 °F 30.2 in South 3.5 mph 3.5 mph 69 % 0 in
11:25 72 °F 60.4 °F 30.2 in South 3.8 mph 3.8 mph 67 % 0 in
11:30 72.1 °F 60.3 °F 30.2 in WSW 4.6 mph 4.6 mph 66 % 0 in
11:35 73.4 °F 60.4 °F 30.2 in SSW 2.4 mph 2.4 mph 64 % 0 in
11:40 73.4 °F 61 °F 30.2 in ENE 2.3 mph 2.3 mph 65 % 0 in
11:45 73.9 °F 61 °F 30.2 in WSW 2.9 mph 2.9 mph 64 % 0 in
11:50 74.1 °F 60.6 °F 30.2 in South 4.6 mph 4.6 mph 63 % 0 in
11:55 73.9 °F 60.4 °F 30.2 in WSW 5.8 mph 5.8 mph 63 % 0 in
12:00 73.8 °F 59.9 °F 30.2 in West 3.5 mph 3.5 mph 62 % 0 in
12:05 75 °F 60.3 °F 30.2 in SSW 3.5 mph 3.5 mph 60 % 0 in
12:10 76.5 °F 60.1 °F 30.2 in SSE 4.6 mph 4.6 mph 57 % 0 in
12:11 76.5 °F 60.1 °F 30.2 in South 4.6 mph 4.6 mph 57 % 0 in
12:16 75.6 °F 58.8 °F 30.2 in SSE 10 mph 10 mph 56 % 0 in
12:21 75.7 °F 59.9 °F 30.2 in West 2.3 mph 2.3 mph 58 % 0 in
12:26 75.7 °F 59.9 °F 30.2 in South 3.5 mph 3.5 mph 58 % 0 in
12:31 75.9 °F 59.2 °F 30.2 in South 6.9 mph 6.9 mph 56 % 0 in
12:36 75.7 °F 58.8 °F 30.2 in West 6.9 mph 6.9 mph 56 % 0 in
12:41 75.2 °F 58.5 °F 30.2 in SW 4.6 mph 4.6 mph 56 % 0 in
12:46 75.4 °F 58.6 °F 30.2 in SW 3.5 mph 3.5 mph 56 % 0 in
12:51 76.1 °F 59.4 °F 30.2 in WNW 3.5 mph 3.5 mph 56 % 0 in
12:56 76.8 °F 58.8 °F 30.2 in SW 2.3 mph 2.3 mph 54 % 0 in
13:01 77.5 °F 59.2 °F 30.2 in SSE 3.6 mph 3.6 mph 53 % 0 in
13:06 77.7 °F 59.2 °F 30.2 in ESE 5.8 mph 5.8 mph 53 % 0 in
13:11 78.1 °F 58.5 °F 30.2 in SE 4.6 mph 4.6 mph 51 % 0 in
13:16 78.4 °F 58.8 °F 30.2 in SE 3.5 mph 3.5 mph 51 % 0 in
13:21 79.2 °F 58.8 °F 30.2 in SW 6.2 mph 6.2 mph 50 % 0 in
13:26 77.9 °F 58.3 °F 30.2 in SSW 4.7 mph 4.7 mph 51 % 0 in
13:27 77.9 °F 57.7 °F 30.2 in SE 3.3 mph 3.3 mph 50 % 0 in
13:32 77.5 °F 57.9 °F 30.2 in South 4.6 mph 4.6 mph 51 % 0 in
13:37 77 °F 57.6 °F 30.2 in WNW 4.6 mph 4.6 mph 51 % 0 in
13:42 76.3 °F 57.4 °F 30.2 in SSW 3.5 mph 3.5 mph 52 % 0 in
13:47 76.1 °F 57.2 °F 30.2 in South 2.3 mph 2.3 mph 52 % 0 in
13:52 76.1 °F 57.2 °F 30.2 in SSW 2.4 mph 2.4 mph 52 % 0 in
13:57 75.9 °F 57.6 °F 30.2 in SSE 2.3 mph 2.3 mph 53 % 0 in
14:02 75.6 °F 57.2 °F 30.2 in WSW 4.6 mph 4.6 mph 53 % 0 in
14:07 75.4 °F 56.5 °F 30.2 in South 2.4 mph 2.4 mph 52 % 0 in
14:12 75.2 °F 56.8 °F 30.2 in West 2.3 mph 2.3 mph 53 % 0 in
14:17 75.2 °F 56.8 °F 30.2 in ESE 2 mph 2.2 mph 53 % 0 in
14:22 74.5 °F 57.4 °F 30.2 in ESE 6 mph 6 mph 55 % 0 in
14:27 73.8 °F 57 °F 30.2 in ENE 6.9 mph 6.9 mph 56 % 0 in
14:32 73 °F 56.5 °F 30.2 in ESE 9.2 mph 9.2 mph 56 % 0 in
14:37 73 °F 56.8 °F 30.2 in East 7.4 mph 7.4 mph 57 % 0 in
14:42 72.7 °F 57 °F 30.2 in East 6.9 mph 6.9 mph 58 % 0 in
14:47 72.7 °F 57 °F 30.2 in East 5.8 mph 5.8 mph 58 % 0 in
14:52 72.5 °F 56.8 °F 30.2 in East 6.9 mph 6.9 mph 58 % 0 in
14:57 72.3 °F 56.7 °F 30.2 in ESE 6.9 mph 6.9 mph 58 % 0 in
15:02 72.7 °F 57.6 °F 30.2 in ESE 5.8 mph 5.8 mph 59 % 0 in
15:07 73.2 °F 57.9 °F 30.2 in East 4.6 mph 4.6 mph 59 % 0 in
15:12 73.2 °F 57.9 °F 30.2 in ESE 8.1 mph 8.1 mph 59 % 0 in
15:17 72.9 °F 57.7 °F 30.2 in ESE 6.9 mph 6.9 mph 59 % 0 in
15:22 73.2 °F 57.6 °F 30.2 in ESE 5.8 mph 5.8 mph 58 % 0 in
15:27 74.3 °F 58.1 °F 30.2 in SW 8.1 mph 8.1 mph 57 % 0 in
15:32 76.8 °F 59.4 °F 30.2 in SSE 3.5 mph 3.5 mph 55 % 0 in
15:37 75.9 °F 57.6 °F 30.2 in SSE 3.5 mph 3.5 mph 53 % 0 in
15:42 76.6 °F 58.6 °F 30.2 in SW 6.9 mph 6.9 mph 54 % 0 in
15:47 77.5 °F 59.2 °F 30.2 in SW 3.5 mph 3.5 mph 53 % 0 in
15:52 77.2 °F 58.3 °F 30.2 in South 4.6 mph 4.6 mph 52 % 0 in
15:57 76.8 °F 58.5 °F 30.2 in SW 5.8 mph 5.8 mph 53 % 0 in
16:02 77.7 °F 58.6 °F 30.2 in South 5.8 mph 5.8 mph 52 % 0 in
16:07 77.2 °F 57.7 °F 30.2 in South 9.2 mph 9.2 mph 51 % 0 in
16:12 77.2 °F 57.7 °F 30.2 in West 8.1 mph 8.1 mph 51 % 0 in
16:17 76.3 °F 57.4 °F 30.2 in WSW 5.8 mph 5.8 mph 52 % 0 in
16:22 77 °F 57.6 °F 30.2 in South 6.9 mph 6.9 mph 51 % 0 in
16:27 77.2 °F 57.7 °F 30.2 in SW 8.1 mph 8.1 mph 51 % 0 in
16:32 77.5 °F 57.4 °F 30.2 in SW 6.9 mph 6.9 mph 50 % 0 in
16:37 77.5 °F 57.4 °F 30.2 in SSW 3.5 mph 3.5 mph 50 % 0 in
16:42 77.5 °F 57.4 °F 30.2 in SSW 12.7 mph 12.7 mph 50 % 0 in
16:47 77 °F 56.8 °F 30.2 in SW 8.1 mph 8.1 mph 50 % 0 in
16:52 77.5 °F 57.4 °F 30.2 in SW 5.8 mph 5.8 mph 50 % 0 in
16:57 77 °F 56.8 °F 30.2 in SW 10.4 mph 10.4 mph 50 % 0 in
17:02 77.4 °F 57.4 °F 30.2 in SSW 6.9 mph 6.9 mph 50 % 0 in
17:07 77.7 °F 57.6 °F 30.2 in SW 5.8 mph 5.8 mph 50 % 0 in
17:12 77 °F 56.8 °F 30.2 in WSW 9.2 mph 9.2 mph 50 % 0 in
17:17 77 °F 56.8 °F 30.2 in SW 8.1 mph 8.1 mph 50 % 0 in
17:22 77 °F 56.8 °F 30.2 in SSW 9.2 mph 9.2 mph 50 % 0 in
17:27 76.8 °F 57.4 °F 30.2 in WSW 5.8 mph 5.8 mph 51 % 0 in
17:32 77 °F 56.8 °F 30.2 in West 5.8 mph 5.8 mph 50 % 0 in
17:33 76.8 °F 57.4 °F 30.2 in SSW 6.2 mph 6.2 mph 51 % 0 in
17:38 76.5 °F 57 °F 30.2 in SSW 8.1 mph 8.1 mph 51 % 0 in
17:43 75.9 °F 56.5 °F 30.2 in WSW 8.1 mph 8.1 mph 51 % 0 in
17:48 75.9 °F 56.5 °F 30.1 in SW 5.8 mph 5.8 mph 51 % 0 in
17:53 75.7 °F 56.3 °F 30.1 in WSW 8.1 mph 8.1 mph 51 % 0 in
17:58 75.6 °F 56.7 °F 30.1 in SSW 10.4 mph 10.4 mph 52 % 0 in
18:03 75.4 °F 56.5 °F 30.1 in WSW 3.5 mph 3.5 mph 52 % 0 in
18:08 75.4 °F 56.5 °F 30.1 in West 7.1 mph 7.1 mph 52 % 0 in
18:13 75.2 °F 56.5 °F 30.1 in SW 8.1 mph 8.1 mph 52 % 0 in
18:18 74.8 °F 55.9 °F 30.1 in South 5.8 mph 5.8 mph 52 % 0 in
18:23 74.1 °F 55.4 °F 30.1 in SW 9.2 mph 9.2 mph 52 % 0 in
18:28 73.9 °F 55.2 °F 30.1 in SW 5.8 mph 5.8 mph 52 % 0 in
18:33 73.9 °F 55.2 °F 30.1 in SW 10.4 mph 10.4 mph 52 % 0 in
18:38 73.6 °F 55.4 °F 30.1 in WSW 4.9 mph 4.9 mph 53 % 0 in
18:43 73.4 °F 55.2 °F 30.1 in SSW 6.9 mph 6.9 mph 53 % 0 in
18:48 73 °F 55.4 °F 30.1 in SW 5.8 mph 5.8 mph 54 % 0 in
18:53 73 °F 55.4 °F 30.1 in SW 5.8 mph 5.8 mph 54 % 0 in
18:58 72.5 °F 54.9 °F 30.1 in WSW 8.5 mph 8.5 mph 54 % 0 in
19:03 72 °F 54.9 °F 30.2 in SSW 8.1 mph 8.1 mph 55 % 0 in
19:08 71.6 °F 54.7 °F 30.2 in South 5.9 mph 5.9 mph 55 % 0 in
19:13 71.4 °F 55.4 °F 30.2 in SW 9 mph 9 mph 57 % 0 in
19:18 70.9 °F 54.9 °F 30.2 in WSW 5.8 mph 5.8 mph 57 % 0 in
19:23 70.7 °F 55.2 °F 30.2 in SSE 3.5 mph 3.5 mph 58 % 0 in
19:28 70.5 °F 55 °F 30.2 in SSW 5.8 mph 5.8 mph 58 % 0 in
19:33 70 °F 55 °F 30.2 in SW 9.2 mph 9.2 mph 59 % 0 in
19:38 69.8 °F 55.2 °F 30.2 in SSW 8.1 mph 8.1 mph 60 % 0 in
19:43 69.6 °F 55.6 °F 30.2 in SW 5.8 mph 5.8 mph 61 % 0 in
19:48 69.3 °F 55.2 °F 30.2 in WSW 5.8 mph 5.8 mph 61 % 0 in
19:53 69.1 °F 55.6 °F 30.2 in SW 5.8 mph 5.8 mph 62 % 0 in
19:58 68.9 °F 55.2 °F 30.2 in WSW 4.6 mph 4.6 mph 62 % 0 in
20:03 68.7 °F 55.2 °F 30.2 in SSW 4.6 mph 4.6 mph 62 % 0 in
20:08 68.7 °F 55.6 °F 30.2 in SSW 3.5 mph 3.5 mph 63 % 0 in
20:13 68.4 °F 55.2 °F 30.2 in SW 5.8 mph 5.8 mph 63 % 0 in
20:18 68.2 °F 55.6 °F 30.2 in SW 4.6 mph 4.6 mph 64 % 0 in
20:23 68 °F 55.4 °F 30.2 in SW 4.3 mph 4.3 mph 64 % 0 in
20:28 68 °F 55.8 °F 30.2 in WSW 4.6 mph 4.6 mph 65 % 0 in
20:33 67.8 °F 55.9 °F 30.2 in SW 3.5 mph 3.5 mph 66 % 0 in
20:38 67.6 °F 55.9 °F 30.2 in SW 3.5 mph 3.5 mph 66 % 0 in
20:43 67.5 °F 56.1 °F 30.2 in SW 3.5 mph 3.5 mph 67 % 0 in
20:48 67.3 °F 55.9 °F 30.2 in SW 3.1 mph 3.1 mph 67 % 0 in
20:53 67.3 °F 55.9 °F 30.2 in WSW 2.4 mph 2.4 mph 67 % 0 in
20:58 67.1 °F 56.1 °F 30.2 in WSW 2.3 mph 2.3 mph 68 % 0 in
21:03 67.1 °F 56.1 °F 30.2 in SW 2.3 mph 2.3 mph 68 % 0 in
21:08 66.9 °F 56.5 °F 30.2 in SW 2.3 mph 2.3 mph 69 % 0 in
21:13 66.7 °F 56.1 °F 30.2 in WSW 2.3 mph 2.3 mph 69 % 0 in
21:18 66.7 °F 56.1 °F 30.2 in WSW 2.3 mph 2.3 mph 69 % 0 in
21:23 66.6 °F 56.5 °F 30.2 in SW 2.3 mph 2.3 mph 70 % 0 in
21:28 66.6 °F 56.5 °F 30.2 in SW 2.3 mph 2.3 mph 70 % 0 in
21:33 66.6 °F 56.5 °F 30.2 in WSW 1.4 mph 1.4 mph 70 % 0 in
21:38 66.4 °F 56.7 °F 30.2 in Calm     71 % 0 in
21:43 66.4 °F 56.7 °F 30.2 in Calm     71 % 0 in
21:48 66.2 °F 56.5 °F 30.2 in Calm     71 % 0 in
21:53 66 °F 56.7 °F 30.2 in Calm     72 % 0 in
21:58 65.8 °F 56.7 °F 30.2 in Calm     72 % 0 in
22:03 65.8 °F 56.8 °F 30.2 in Calm     73 % 0 in
22:08 65.8 °F 56.8 °F 30.2 in Calm     73 % 0 in
22:13 65.8 °F 56.8 °F 30.2 in Calm     73 % 0 in
22:18 65.7 °F 56.8 °F 30.2 in Calm     73 % 0 in
22:23 65.5 °F 57 °F 30.2 in Calm     74 % 0 in
22:28 65.5 °F 57 °F 30.2 in Calm     74 % 0 in
22:33 65.5 °F 57 °F 30.2 in Calm     74 % 0 in
22:38 65.3 °F 56.8 °F 30.2 in Calm     74 % 0 in
22:43 65.1 °F 56.7 °F 30.2 in Calm     74 % 0 in
22:48 65.1 °F 57 °F 30.2 in Calm     75 % 0 in
22:53 65.1 °F 57 °F 30.2 in Calm     75 % 0 in
22:58 64.9 °F 56.8 °F 30.2 in Calm     75 % 0 in
23:03 64.8 °F 57 °F 30.2 in Calm     76 % 0 in
23:08 64.8 °F 57 °F 30.2 in Calm     76 % 0 in
23:13 64.8 °F 57 °F 30.2 in Calm     76 % 0 in
23:18 64.8 °F 56.7 °F 30.2 in West 1.2 mph 1.2 mph 75 % 0 in
23:23 64.8 °F 57 °F 30.2 in Calm     76 % 0 in
23:28 64.8 °F 57 °F 30.2 in Calm     76 % 0 in
23:33 64.8 °F 57 °F 30.2 in Calm     76 % 0 in
23:38 64.6 °F 57.2 °F 30.2 in Calm     77 % 0 in
23:43 64.4 °F 57 °F 30.2 in Calm     77 % 0 in
23:48 64.4 °F 57 °F 30.2 in Calm     77 % 0 in
23:53 64 °F 56.7 °F 30.2 in Calm     77 % 0 in
23:58 64 °F 56.7 °F 30.2 in Calm     77 % 0 in
Meteo Sesrovires
Elogis d' Weather Underground - 3.5 mb

Guio original per  Jim McMurry - jmcmurry@mwt.net Adaptat per a la plantilla per  Wim van der Kuil - Leuven-Template.eu

Trobareu la nostra informacio del temps tambe a:

Weather Underground

AWEKAS